createdAt,value
2018-08-06T00:00:58.968Z,99.90
2018-08-06T00:03:27.580Z,99.90
2018-08-06T00:05:56.217Z,99.90
2018-08-06T00:08:24.843Z,99.90
2018-08-06T00:10:53.603Z,99.90
2018-08-06T00:13:22.241Z,99.90
2018-08-06T00:15:51.011Z,99.90
2018-08-06T00:18:19.661Z,99.90
2018-08-06T00:20:48.370Z,99.90
2018-08-06T00:23:16.976Z,99.90
2018-08-06T00:28:13.861Z,99.90
2018-08-06T00:30:42.490Z,99.90
2018-08-06T00:33:11.453Z,99.90
2018-08-06T00:35:40.055Z,99.90
2018-08-06T00:38:08.719Z,99.90
2018-08-06T00:40:37.431Z,99.90
2018-08-06T00:43:06.345Z,99.90
2018-08-06T00:45:35.052Z,99.90
2018-08-06T00:48:03.715Z,99.90
2018-08-06T00:50:32.457Z,99.90
2018-08-06T00:53:01.514Z,99.90
2018-08-06T00:55:30.181Z,99.90
2018-08-06T00:57:58.745Z,99.90
2018-08-06T01:00:27.655Z,99.90
2018-08-06T01:02:56.407Z,99.90
2018-08-06T01:05:25.065Z,99.90
2018-08-06T01:07:53.695Z,99.90
2018-08-06T01:10:22.554Z,99.90
2018-08-06T01:12:51.170Z,99.90
2018-08-06T01:15:19.821Z,99.90
2018-08-06T01:17:48.469Z,99.90
2018-08-06T01:20:17.073Z,99.90
2018-08-06T01:22:46.313Z,99.90
2018-08-06T01:25:15.499Z,99.90
2018-08-06T01:27:44.178Z,99.90
2018-08-06T01:30:14.301Z,99.90
2018-08-06T01:32:43.283Z,99.90
2018-08-06T01:35:12.435Z,99.90
2018-08-06T01:37:41.173Z,99.90
2018-08-06T01:40:12.273Z,99.90
2018-08-06T01:42:41.325Z,99.90
2018-08-06T01:45:12.426Z,99.90
2018-08-06T01:47:41.247Z,99.90
2018-08-06T01:50:10.840Z,99.90
2018-08-06T01:52:39.635Z,99.90
2018-08-06T01:55:08.280Z,99.90
2018-08-06T01:57:36.937Z,99.90
2018-08-06T02:00:14.722Z,99.90
2018-08-06T02:02:43.405Z,99.90
2018-08-06T02:05:12.401Z,99.90
2018-08-06T02:07:41.367Z,99.90
2018-08-06T02:10:12.564Z,99.90
2018-08-06T02:12:41.783Z,99.90
2018-08-06T02:15:11.464Z,99.90
2018-08-06T02:17:40.381Z,99.90
2018-08-06T02:20:12.106Z,99.90
2018-08-06T02:22:40.723Z,99.90
2018-08-06T02:25:10.282Z,99.90
2018-08-06T02:27:39.008Z,99.90
2018-08-06T02:30:10.882Z,99.90
2018-08-06T02:32:40.009Z,99.90
2018-08-06T02:35:10.660Z,99.90
2018-08-06T02:37:39.496Z,99.90
2018-08-06T02:40:10.361Z,99.90
2018-08-06T02:42:38.987Z,99.90
2018-08-06T02:45:08.952Z,99.90
2018-08-06T02:47:38.077Z,99.90
2018-08-06T02:50:07.987Z,99.90
2018-08-06T02:52:36.613Z,99.90
2018-08-06T02:55:06.403Z,99.90
2018-08-06T02:57:35.133Z,99.90
2018-08-06T03:00:04.504Z,99.90
2018-08-06T03:02:33.257Z,99.90
2018-08-06T03:05:01.875Z,99.90
2018-08-06T03:09:58.995Z,99.90
2018-08-06T03:12:27.567Z,99.90
2018-08-06T03:14:56.297Z,99.90
2018-08-06T03:17:25.160Z,99.90
2018-08-06T03:19:53.811Z,99.90
2018-08-06T03:22:22.537Z,99.90
2018-08-06T03:24:51.445Z,99.90
2018-08-06T03:27:20.049Z,99.90
2018-08-06T03:32:16.929Z,99.90
2018-08-06T03:34:45.849Z,99.90
2018-08-06T03:37:14.575Z,99.90
2018-08-06T03:39:43.368Z,99.90
2018-08-06T03:42:12.035Z,99.90
2018-08-06T03:44:40.675Z,99.90
2018-08-06T03:47:09.407Z,99.90
2018-08-06T03:49:38.011Z,99.90
2018-08-06T03:54:35.143Z,99.90
2018-08-06T03:57:03.769Z,99.90
2018-08-06T03:59:32.539Z,99.90
2018-08-06T04:02:01.394Z,99.90
2018-08-06T04:04:30.166Z,99.90
2018-08-06T04:06:58.973Z,99.90
2018-08-06T04:09:27.596Z,99.90
2018-08-06T04:11:56.365Z,99.90
2018-08-06T04:14:24.949Z,99.90
2018-08-06T04:16:53.531Z,99.90
2018-08-06T04:19:22.175Z,99.90
2018-08-06T04:21:51.049Z,99.90
2018-08-06T04:24:19.649Z,99.90
2018-08-06T04:26:48.343Z,99.90
2018-08-06T04:29:16.949Z,99.90
2018-08-06T04:31:45.719Z,99.90
2018-08-06T04:34:14.355Z,99.90
2018-08-06T04:39:11.256Z,99.90
2018-08-06T04:41:40.021Z,99.90
2018-08-06T04:44:08.667Z,99.90
2018-08-06T04:46:37.441Z,99.90
2018-08-06T04:49:06.611Z,99.90
2018-08-06T04:51:35.231Z,99.90
2018-08-06T04:54:04.031Z,99.90
2018-08-06T04:59:01.100Z,99.90
2018-08-06T05:01:29.953Z,99.90
2018-08-06T05:03:58.583Z,99.90
2018-08-06T05:06:27.355Z,99.90
2018-08-06T05:08:56.014Z,99.90
2018-08-06T05:11:24.673Z,99.90
2018-08-06T05:13:53.231Z,99.90
2018-08-06T05:16:21.804Z,99.90
2018-08-06T05:18:50.590Z,99.90
2018-08-06T05:21:19.231Z,99.90
2018-08-06T05:23:56.658Z,99.90
2018-08-06T05:26:26.432Z,99.90
2018-08-06T05:28:55.048Z,99.90
2018-08-06T05:33:54.283Z,99.90
2018-08-06T05:36:23.448Z,99.90
2018-08-06T05:38:53.481Z,99.90
2018-08-06T05:41:24.257Z,99.90
2018-08-06T05:43:54.406Z,99.90
2018-08-06T05:46:23.238Z,99.90
2018-08-06T05:51:20.402Z,99.90
2018-08-06T05:56:17.231Z,99.90
2018-08-06T05:58:45.829Z,99.90
2018-08-06T06:01:14.499Z,99.90
2018-08-06T06:03:43.105Z,99.90
2018-08-06T06:06:11.933Z,99.90
2018-08-06T06:08:41.048Z,99.90
2018-08-06T06:11:10.158Z,99.90
2018-08-06T06:13:38.809Z,99.90
2018-08-06T06:16:08.705Z,99.90
2018-08-06T06:18:37.314Z,99.90
2018-08-06T06:21:05.987Z,99.90
2018-08-06T06:23:34.679Z,99.90
2018-08-06T06:26:03.318Z,99.90
2018-08-06T06:28:32.063Z,99.90
2018-08-06T06:31:00.769Z,99.90
2018-08-06T06:33:29.419Z,99.90
2018-08-06T06:35:58.117Z,99.90
2018-08-06T06:38:26.992Z,99.90
2018-08-06T06:40:55.618Z,99.90
2018-08-06T06:43:24.261Z,99.90
2018-08-06T06:45:52.909Z,99.90
2018-08-06T06:48:21.534Z,99.90
2018-08-06T06:50:50.213Z,99.90
2018-08-06T06:53:18.975Z,99.90
2018-08-06T07:00:44.201Z,99.90
2018-08-06T07:03:12.817Z,99.90
2018-08-06T07:05:41.582Z,99.90
2018-08-06T07:08:10.209Z,99.90
2018-08-06T07:10:38.815Z,99.90
2018-08-06T07:13:07.517Z,99.90
2018-08-06T07:15:36.185Z,99.90
2018-08-06T07:18:04.857Z,99.90
2018-08-06T07:20:33.826Z,99.90
2018-08-06T07:23:02.671Z,99.90
2018-08-06T07:25:31.302Z,99.90
2018-08-06T07:28:00.010Z,99.90
2018-08-06T07:30:28.703Z,99.90
2018-08-06T07:32:57.546Z,99.90
2018-08-06T07:35:26.303Z,99.90
2018-08-06T07:37:54.915Z,99.90
2018-08-06T07:40:23.523Z,99.90
2018-08-06T07:42:52.387Z,99.90
2018-08-06T07:45:21.624Z,99.90
2018-08-06T07:47:51.055Z,99.90
2018-08-06T07:52:49.186Z,99.90
2018-08-06T07:55:18.295Z,99.90
2018-08-06T07:57:47.182Z,99.90
2018-08-06T08:00:17.747Z,99.90
2018-08-06T08:02:46.804Z,99.90
2018-08-06T08:05:17.058Z,99.90
2018-08-06T08:07:47.030Z,99.90
2018-08-06T08:10:21.296Z,99.90
2018-08-06T08:12:50.038Z,99.90
2018-08-06T08:15:21.750Z,99.90
2018-08-06T08:17:50.802Z,99.90
2018-08-06T08:20:19.968Z,99.90
2018-08-06T08:22:48.591Z,99.90
2018-08-06T08:25:20.107Z,99.90
2018-08-06T08:27:48.920Z,99.90
2018-08-06T08:30:18.425Z,99.90
2018-08-06T08:32:47.332Z,99.90
2018-08-06T08:35:16.764Z,99.90
2018-08-06T08:37:45.824Z,99.90
2018-08-06T08:40:16.826Z,99.90
2018-08-06T08:42:45.979Z,99.90
2018-08-06T08:45:16.400Z,99.90
2018-08-06T08:47:45.782Z,99.90
2018-08-06T08:50:16.876Z,99.90
2018-08-06T08:55:16.057Z,99.90
2018-08-06T08:57:45.053Z,99.90
2018-08-06T09:00:18.185Z,99.90
2018-08-06T09:02:48.019Z,99.90
2018-08-06T09:05:17.445Z,99.70
2018-08-06T09:07:46.755Z,99.60
2018-08-06T09:10:16.690Z,99.60
2018-08-06T09:12:45.561Z,98.70
2018-08-06T09:15:18.665Z,98.20
2018-08-06T09:17:47.453Z,98.10
2018-08-06T09:20:16.229Z,97.90
2018-08-06T09:22:45.557Z,97.20
2018-08-06T09:25:14.644Z,97.10
2018-08-06T09:27:44.819Z,97.30
2018-08-06T09:30:15.799Z,97.20
2018-08-06T09:32:49.890Z,96.30
2018-08-06T09:35:19.280Z,96.50
2018-08-06T09:37:47.944Z,96.40
2018-08-06T09:40:18.047Z,96.90
2018-08-06T09:42:47.764Z,95.90
2018-08-06T09:45:18.118Z,94.90
2018-08-06T09:47:48.262Z,95.00
2018-08-06T09:50:17.910Z,95.00
2018-08-06T09:52:47.736Z,95.70
2018-08-06T09:55:20.027Z,94.40
2018-08-06T09:57:49.482Z,93.90
2018-08-06T10:01:27.086Z,93.70
2018-08-06T10:03:55.666Z,94.30
2018-08-06T10:06:24.418Z,94.30
2018-08-06T10:08:52.888Z,94.40
2018-08-06T10:11:21.526Z,94.40
2018-08-06T10:13:50.118Z,93.90
2018-08-06T10:16:18.718Z,93.90
2018-08-06T10:18:47.560Z,93.60
2018-08-06T10:23:45.448Z,93.80
2018-08-06T10:26:14.328Z,94.20
2018-08-06T10:28:43.047Z,91.90
2018-08-06T10:31:11.678Z,91.70
2018-08-06T10:33:40.241Z,91.90
2018-08-06T10:36:08.845Z,92.40
2018-08-06T10:38:37.423Z,92.90
2018-08-06T10:41:06.236Z,92.00
2018-08-06T10:43:34.978Z,91.90
2018-08-06T10:46:03.588Z,91.80
2018-08-06T10:48:32.283Z,92.50
2018-08-06T10:51:00.820Z,91.20
2018-08-06T10:53:29.438Z,90.90
2018-08-06T10:55:58.073Z,90.90
2018-08-06T10:58:26.912Z,90.90
2018-08-06T11:00:55.705Z,90.70
2018-08-06T11:03:24.324Z,90.40
2018-08-06T11:08:21.855Z,90.00
2018-08-06T11:10:50.436Z,88.50
2018-08-06T11:13:19.315Z,89.10
2018-08-06T11:15:48.265Z,89.00
2018-08-06T11:18:17.129Z,85.10
2018-08-06T11:20:46.425Z,85.80
2018-08-06T11:23:14.968Z,88.40
2018-08-06T11:25:43.867Z,84.20
2018-08-06T11:28:12.561Z,85.70
2018-08-06T11:30:41.821Z,82.00
2018-08-06T11:33:10.385Z,80.90
2018-08-06T11:35:39.015Z,82.60
2018-08-06T11:38:07.614Z,82.00
2018-08-06T11:40:36.384Z,80.30
2018-08-06T11:43:05.284Z,80.30
2018-08-06T11:45:34.013Z,82.40
2018-08-06T11:48:02.597Z,78.60
2018-08-06T11:50:31.324Z,79.30
2018-08-06T11:53:00.700Z,78.40
2018-08-06T11:55:29.314Z,77.10
2018-08-06T11:57:57.898Z,78.30
2018-08-06T12:00:27.653Z,77.30
2018-08-06T12:02:56.797Z,75.70
2018-08-06T12:05:25.570Z,73.00
2018-08-06T12:07:54.169Z,73.40
2018-08-06T12:10:22.726Z,73.40
2018-08-06T12:12:51.417Z,73.70
2018-08-06T12:15:20.023Z,73.00
2018-08-06T12:17:49.024Z,73.20
2018-08-06T12:20:19.030Z,72.40
2018-08-06T12:22:48.846Z,70.90
2018-08-06T12:25:18.040Z,71.20
2018-08-06T12:27:47.666Z,69.30
2018-08-06T12:30:21.116Z,69.30
2018-08-06T12:32:50.548Z,69.10
2018-08-06T12:35:19.438Z,69.50
2018-08-06T12:37:48.719Z,67.50
2018-08-06T12:40:18.589Z,67.50
2018-08-06T12:42:47.308Z,69.10
2018-08-06T12:47:45.562Z,65.30
2018-08-06T12:50:15.665Z,63.70
2018-08-06T12:52:44.728Z,64.20
2018-08-06T12:55:14.608Z,64.10
2018-08-06T12:57:43.974Z,62.80
2018-08-06T13:00:18.767Z,63.40
2018-08-06T13:02:48.116Z,61.40
2018-08-06T13:05:17.204Z,61.80
2018-08-06T13:07:45.882Z,60.60
2018-08-06T13:10:14.963Z,59.70
2018-08-06T13:12:44.112Z,58.90
2018-08-06T13:15:13.889Z,60.40
2018-08-06T13:17:42.649Z,58.10
2018-08-06T13:20:11.547Z,59.20
2018-08-06T13:22:40.206Z,57.60
2018-08-06T13:25:10.631Z,56.90
2018-08-06T13:27:39.279Z,57.30
2018-08-06T13:30:11.200Z,58.10
2018-08-06T13:32:39.839Z,55.80
2018-08-06T13:40:06.112Z,52.90
2018-08-06T13:45:03.273Z,51.80
2018-08-06T13:50:00.244Z,50.00
2018-08-06T13:54:57.208Z,49.10
2018-08-06T13:59:54.214Z,48.50
2018-08-06T14:02:23.104Z,47.90
2018-08-06T14:04:51.682Z,47.70
2018-08-06T14:07:20.586Z,47.80
2018-08-06T14:09:49.357Z,46.70
2018-08-06T14:12:18.020Z,47.00
2018-08-06T14:14:46.680Z,46.90
2018-08-06T14:19:43.722Z,44.10
2018-08-06T14:22:12.480Z,43.80
2018-08-06T14:24:41.098Z,44.70
2018-08-06T14:27:09.821Z,45.30
2018-08-06T14:29:38.500Z,43.30
2018-08-06T14:32:07.206Z,43.10
2018-08-06T14:34:35.990Z,41.90
2018-08-06T14:37:04.566Z,42.00
2018-08-06T14:39:33.132Z,41.50
2018-08-06T14:46:58.318Z,43.30
2018-08-06T14:49:27.059Z,42.40
2018-08-06T14:54:24.086Z,42.20
2018-08-06T14:56:52.774Z,42.40
2018-08-06T14:59:21.475Z,41.40
2018-08-06T15:01:50.212Z,42.70
2018-08-06T15:04:18.912Z,43.10
2018-08-06T15:06:47.689Z,40.60
2018-08-06T15:09:16.479Z,41.40
2018-08-06T15:11:45.091Z,41.50
2018-08-06T15:14:13.632Z,41.50
2018-08-06T15:16:42.192Z,41.40
2018-08-06T15:19:10.744Z,41.50
2018-08-06T15:21:39.377Z,40.80
2018-08-06T15:24:08.019Z,40.30
2018-08-06T15:26:36.636Z,39.60
2018-08-06T15:29:05.499Z,40.10
2018-08-06T15:31:34.239Z,39.60
2018-08-06T15:34:02.895Z,39.80
2018-08-06T15:36:31.964Z,40.00
2018-08-06T15:39:00.625Z,40.00
2018-08-06T15:41:29.286Z,40.00
2018-08-06T15:43:57.923Z,40.00
2018-08-06T15:46:26.601Z,39.80
2018-08-06T15:48:55.268Z,39.70
2018-08-06T15:51:24.031Z,40.60
2018-08-06T15:53:52.766Z,40.80
2018-08-06T15:56:21.411Z,41.30
2018-08-06T15:58:50.103Z,40.70
2018-08-06T16:01:18.806Z,40.00
2018-08-06T16:03:47.617Z,38.60
2018-08-06T16:06:16.166Z,39.20
2018-08-06T16:08:45.076Z,39.40
2018-08-06T16:11:13.806Z,40.30
2018-08-06T16:13:42.494Z,40.10
2018-08-06T16:16:11.351Z,39.20
2018-08-06T16:18:41.212Z,39.10
2018-08-06T16:21:09.898Z,39.30
2018-08-06T16:23:38.588Z,39.80
2018-08-06T16:26:07.268Z,39.90
2018-08-06T16:28:35.884Z,40.60
2018-08-06T16:31:04.919Z,40.60
2018-08-06T16:33:33.844Z,40.20
2018-08-06T16:36:02.488Z,39.90
2018-08-06T16:38:31.288Z,39.70
2018-08-06T16:40:59.932Z,40.20
2018-08-06T16:43:28.700Z,40.40
2018-08-06T16:45:57.356Z,39.80
2018-08-06T16:48:26.642Z,40.20
2018-08-06T16:50:55.425Z,40.70
2018-08-06T16:53:24.402Z,39.80
2018-08-06T16:55:53.047Z,40.20
2018-08-06T16:58:21.770Z,40.30
2018-08-06T17:00:50.652Z,40.20
2018-08-06T17:03:19.320Z,40.70
2018-08-06T17:05:47.976Z,40.40
2018-08-06T17:08:16.800Z,40.10
2018-08-06T17:10:45.586Z,40.10
2018-08-06T17:13:14.249Z,40.00
2018-08-06T17:15:42.901Z,39.70
2018-08-06T17:18:11.612Z,40.20
2018-08-06T17:20:40.243Z,40.60
2018-08-06T17:23:09.018Z,40.40
2018-08-06T17:25:37.990Z,40.80
2018-08-06T17:28:06.807Z,41.20
2018-08-06T17:33:04.032Z,41.60
2018-08-06T17:35:32.665Z,41.30
2018-08-06T17:40:29.633Z,42.20
2018-08-06T17:47:55.048Z,42.70
2018-08-06T17:50:24.195Z,42.50
2018-08-06T17:52:53.599Z,42.60
2018-08-06T17:55:23.621Z,42.30
2018-08-06T17:57:52.417Z,43.20
2018-08-06T18:00:21.427Z,43.10
2018-08-06T18:02:50.123Z,43.60
2018-08-06T18:05:19.372Z,44.30
2018-08-06T18:07:48.123Z,44.90
2018-08-06T18:10:17.579Z,45.20
2018-08-06T18:12:46.857Z,45.70
2018-08-06T18:15:15.701Z,46.20
2018-08-06T18:17:44.567Z,46.90
2018-08-06T18:20:15.845Z,47.40
2018-08-06T18:22:44.681Z,47.50
2018-08-06T18:25:15.208Z,48.10
2018-08-06T18:27:44.913Z,48.40
2018-08-06T18:30:16.483Z,48.40
2018-08-06T18:32:45.122Z,48.70
2018-08-06T18:37:44.376Z,48.90
2018-08-06T18:40:13.854Z,52.20
2018-08-06T18:45:14.396Z,61.70
2018-08-06T18:47:44.035Z,63.80
2018-08-06T18:50:13.758Z,66.10
2018-08-06T18:52:43.423Z,69.50
2018-08-06T18:55:12.969Z,72.30
2018-08-06T18:57:42.115Z,74.30
2018-08-06T19:00:17.014Z,76.80
2018-08-06T19:02:45.753Z,78.80
2018-08-06T19:07:43.138Z,82.50
2018-08-06T19:10:12.454Z,84.60
2018-08-06T19:12:46.363Z,85.80
2018-08-06T19:15:15.116Z,86.70
2018-08-06T19:17:49.208Z,87.80
2018-08-06T19:20:18.142Z,88.80
2018-08-06T19:22:46.955Z,90.00
2018-08-06T19:25:20.887Z,90.70
2018-08-06T19:27:49.650Z,91.10
2018-08-06T19:30:18.401Z,91.70
2018-08-06T19:32:47.177Z,92.10
2018-08-06T19:37:47.787Z,92.90
2018-08-06T19:40:16.477Z,93.30
2018-08-06T19:42:50.453Z,93.80
2018-08-06T19:45:19.198Z,94.20
2018-08-06T19:47:47.842Z,94.70
2018-08-06T19:50:22.050Z,95.00
2018-08-06T19:52:50.803Z,95.60
2018-08-06T19:55:24.795Z,95.80
2018-08-06T20:02:50.244Z,96.80
2018-08-06T20:05:18.887Z,97.10
2018-08-06T20:07:47.486Z,97.20
2018-08-06T20:10:16.327Z,97.20
2018-08-06T20:12:45.125Z,97.40
2018-08-06T20:15:16.137Z,97.70
2018-08-06T20:17:44.771Z,97.70
2018-08-06T20:20:13.473Z,97.80
2018-08-06T20:22:42.683Z,97.90
2018-08-06T20:25:20.665Z,97.90
2018-08-06T20:27:50.111Z,98.10
2018-08-06T20:30:20.542Z,98.00
2018-08-06T20:32:49.591Z,98.20
2018-08-06T20:35:18.844Z,98.30
2018-08-06T20:37:47.465Z,98.50
2018-08-06T20:40:16.217Z,98.50
2018-08-06T20:42:48.847Z,98.50
2018-08-06T20:45:19.098Z,98.60
2018-08-06T20:47:47.909Z,98.60
2018-08-06T20:50:18.037Z,98.40
2018-08-06T20:52:47.727Z,98.40
2018-08-06T20:55:16.462Z,98.40
2018-08-06T20:57:45.420Z,98.40
2018-08-06T21:00:18.611Z,98.30
2018-08-06T21:02:48.267Z,98.40
2018-08-06T21:05:17.087Z,98.30
2018-08-06T21:07:45.792Z,98.20
2018-08-06T21:10:15.520Z,98.30
2018-08-06T21:12:44.399Z,98.20
2018-08-06T21:15:14.079Z,98.40
2018-08-06T21:17:43.172Z,98.10
2018-08-06T21:20:14.048Z,98.20
2018-08-06T21:22:44.426Z,98.10
2018-08-06T21:27:43.123Z,98.20
2018-08-06T21:30:14.196Z,98.20
2018-08-06T21:32:46.144Z,98.10
2018-08-06T21:35:15.470Z,98.10
2018-08-06T21:37:44.157Z,98.30
2018-08-06T21:40:12.811Z,98.10
2018-08-06T21:42:41.387Z,98.10
2018-08-06T21:47:38.455Z,98.10
2018-08-06T21:50:07.860Z,98.00
2018-08-06T21:52:36.614Z,97.80
2018-08-06T21:55:06.025Z,98.00
2018-08-06T21:57:35.049Z,98.00
2018-08-06T22:00:04.212Z,98.00
2018-08-06T22:02:32.861Z,98.00
2018-08-06T22:05:01.710Z,98.10
2018-08-06T22:07:30.506Z,98.00
2018-08-06T22:09:59.124Z,97.90
2018-08-06T22:12:27.705Z,97.90
2018-08-06T22:14:56.324Z,97.70
2018-08-06T22:17:25.135Z,97.50
2018-08-06T22:19:53.734Z,97.30
2018-08-06T22:22:22.399Z,97.60
2018-08-06T22:24:51.217Z,97.40
2018-08-06T22:27:19.972Z,97.40
2018-08-06T22:29:48.555Z,97.30
2018-08-06T22:32:17.170Z,97.10
2018-08-06T22:34:45.897Z,97.20
2018-08-06T22:37:14.486Z,97.20
2018-08-06T22:39:43.365Z,97.40
2018-08-06T22:42:12.145Z,97.30
2018-08-06T22:44:40.683Z,97.40
2018-08-06T22:47:09.467Z,97.40
2018-08-06T22:49:38.038Z,97.50
2018-08-06T22:52:07.132Z,97.50
2018-08-06T22:54:36.021Z,97.50
2018-08-06T22:57:04.887Z,97.70
2018-08-06T22:59:33.453Z,97.70
2018-08-06T23:02:02.013Z,97.90
2018-08-06T23:04:30.669Z,97.80
2018-08-06T23:06:59.423Z,98.00
2018-08-06T23:09:28.061Z,98.00
2018-08-06T23:11:56.813Z,98.20
2018-08-06T23:16:53.793Z,98.30
2018-08-06T23:19:22.670Z,98.30
2018-08-06T23:24:19.521Z,98.70
2018-08-06T23:26:48.281Z,98.70
2018-08-06T23:29:17.004Z,98.80
2018-08-06T23:34:13.851Z,98.90
2018-08-06T23:36:42.477Z,99.00
2018-08-06T23:39:11.354Z,99.10
2018-08-06T23:41:40.069Z,99.20
2018-08-06T23:44:08.693Z,99.30
2018-08-06T23:46:37.556Z,99.30
2018-08-06T23:49:06.121Z,99.30
2018-08-06T23:51:34.651Z,99.40
2018-08-06T23:54:03.452Z,99.50
2018-08-06T23:56:32.133Z,99.50
2018-08-06T23:59:00.759Z,99.70
